TimeHST,TemperatureF,Dew PointF,Humidity,Sea Level PressureIn,VisibilityMPH,Wind Direction,Wind SpeedMPH,Gust SpeedMPH,PrecipitationIn,Events,Conditions,WindDirDegrees,DateUTC
12:57 AM,71.6,62.1,72,30.06,10.0,Variable,4.6,21.9,N/A,,Mostly Cloudy,0,2013-01-23 10:57:00
1:57 AM,69.8,57.0,64,30.05,10.0,ENE,8.1,-,N/A,,Overcast,60,2013-01-23 11:57:00
2:57 AM,68.0,61.0,78,30.04,10.0,East,12.7,19.6,0.00,,Overcast,80,2013-01-23 12:57:00
3:57 AM,68.0,60.1,76,30.04,10.0,East,9.2,16.1,N/A,,Mostly Cloudy,80,2013-01-23 13:57:00
4:57 AM,68.0,60.1,76,30.03,10.0,ENE,8.1,16.1,0.00,,Mostly Cloudy,70,2013-01-23 14:57:00
5:57 AM,69.8,57.0,64,30.04,10.0,East,8.1,-,N/A,,Overcast,80,2013-01-23 15:57:00
6:57 AM,71.6,55.9,58,30.05,10.0,ENE,10.4,16.1,0.00,,Overcast,60,2013-01-23 16:57:00
7:57 AM,72.3,57.9,60,30.07,10.0,NE,8.1,-,0.00,Rain,Light Rain,40,2013-01-23 17:57:00
8:24 AM,71.6,62.6,73,30.09,6.2,ESE,11.5,17.3,0.00,Rain,Light Rain,110,2013-01-23 18:24:00
8:57 AM,70.9,63.0,76,30.09,10.0,ESE,10.4,-,0.00,,Overcast,110,2013-01-23 18:57:00
9:15 AM,71.6,62.6,73,30.10,6.2,East,6.9,-,0.00,,Overcast,100,2013-01-23 19:15:00
9:39 AM,71.6,62.6,73,30.10,6.2,East,6.9,19.6,0.00,Rain,Rain,90,2013-01-23 19:39:00
9:53 AM,71.6,62.6,73,30.10,6.2,East,8.1,19.6,0.00,,Overcast,80,2013-01-23 19:53:00
9:57 AM,72.0,63.0,73,30.09,10.0,ENE,11.5,19.6,0.00,,Overcast,60,2013-01-23 19:57:00
10:16 AM,71.6,62.6,73,30.10,6.2,ENE,9.2,17.3,N/A,,Mostly Cloudy,70,2013-01-23 20:16:00
10:57 AM,73.2,63.0,70,30.08,10.0,East,8.1,-,0.00,,Mostly Cloudy,80,2013-01-23 20:57:00
11:57 AM,76.1,64.0,66,30.06,10.0,Variable,5.8,17.3,0.00,,Mostly Cloudy,0,2013-01-23 21:57:00
12:57 PM,76.6,64.0,65,30.04,10.0,East,9.2,18.4,N/A,,Scattered Clouds,100,2013-01-23 22:57:00
1:57 PM,78.1,64.0,62,30.01,10.0,East,11.5,19.6,N/A,,Mostly Cloudy,100,2013-01-23 23:57:00
2:43 PM,78.8,62.6,57,30.02,6.2,East,11.5,18.4,N/A,,Overcast,80,2013-01-24 00:43:00
2:57 PM,78.1,63.0,60,30.01,10.0,ENE,10.4,-,N/A,,Overcast,60,2013-01-24 00:57:00
3:04 PM,78.8,64.4,61,30.02,6.2,East,8.1,-,N/A,,Scattered Clouds,80,2013-01-24 01:04:00
3:57 PM,77.5,64.0,63,30.01,10.0,East,12.7,18.4,N/A,,Scattered Clouds,80,2013-01-24 01:57:00
4:42 PM,77.0,66.2,69,30.04,6.2,Calm,Calm,-,0.00,Rain,Light Rain,0,2013-01-24 02:42:00
4:49 PM,77.0,66.2,69,30.04,6.2,NE,5.8,-,0.00,Rain,Light Rain,40,2013-01-24 02:49:00
4:57 PM,73.8,66.0,77,30.02,10.0,ENE,5.8,-,0.00,Rain,Light Rain,70,2013-01-24 02:57:00
5:05 PM,-9999,-9999,N/A,30.04,10.0,Variable,3.5,-,0.00,Rain,Light Rain,0,2013-01-24 03:05:00
5:42 PM,73.4,66.2,78,30.05,6.2,East,4.6,-,0.00,Rain,Rain,90,2013-01-24 03:42:00
5:57 PM,70.7,66.9,88,30.03,10.0,Calm,Calm,-,N/A,Rain,Light Rain,0,2013-01-24 03:57:00
6:48 PM,71.6,66.2,83,30.04,6.2,East,6.9,17.3,N/A,,Overcast,90,2013-01-24 04:48:00
6:57 PM,71.2,66.9,86,30.03,10.0,East,9.2,17.3,N/A,,Overcast,80,2013-01-24 04:57:00
7:04 PM,-9999,-9999,N/A,30.05,6.2,East,10.4,17.3,N/A,,Overcast,90,2013-01-24 05:04:00
7:57 PM,71.6,64.9,79,30.05,10.0,Variable,6.9,-,N/A,,Overcast,0,2013-01-24 05:57:00
8:57 PM,71.6,64.9,79,30.06,10.0,Variable,5.8,-,N/A,,Mostly Cloudy,0,2013-01-24 06:57:00
9:57 PM,71.1,64.9,81,30.06,10.0,ESE,10.4,17.3,N/A,,Overcast,120,2013-01-24 07:57:00
10:34 PM,71.6,64.4,78,30.08,6.2,Calm,Calm,-,N/A,Rain,Light Rain,0,2013-01-24 08:34:00
10:57 PM,70.7,64.9,82,30.06,10.0,Variable,4.6,-,N/A,,Overcast,0,2013-01-24 08:57:00
11:57 PM,70.5,66.0,86,30.04,10.0,East,8.1,-,N/A,,Overcast,90,2013-01-24 09:57:00